Time;durP1;ratioP1;P1;durP2;ratioP2;P2;SDS_P1;SDS_P2;PMS_P1;PMS_P2;Temp;Humidity;BMP_temperature;BMP_pressure;BME280_temperature;BME280_humidity;BME280_pressure;Samples;Min_cycle;Max_cycle;Signal;HPM_P1;HPM_P2
2024/01/05 00:02:11;;;;;;;11.20;3.50;;;10.70;60.70;;;;;;4987634;28;20589;-58
2024/01/05 00:04:36;;;;;;;13.03;5.03;;;10.60;60.80;;;;;;4986762;28;20695;-56
2024/01/05 00:07:02;;;;;;;8.10;2.90;;;10.40;61.50;;;;;;4986305;28;20269;-56
2024/01/05 00:09:28;;;;;;;8.63;3.43;;;10.30;62.00;;;;;;4987786;28;20193;-58
2024/01/05 00:11:53;;;;;;;10.73;3.57;;;10.20;62.30;;;;;;4991379;28;20209;-58
2024/01/05 00:14:19;;;;;;;5.57;3.10;;;10.30;62.50;;;;;;4987388;28;20217;-57
2024/01/05 00:16:45;;;;;;;8.07;3.13;;;10.40;61.90;;;;;;4985698;28;20211;-58
2024/01/05 00:19:10;;;;;;;4.90;2.60;;;10.40;61.30;;;;;;4988960;28;20542;-59
2024/01/05 00:21:36;;;;;;;3.13;2.60;;;10.50;61.20;;;;;;4986597;28;20198;-59
2024/01/05 00:24:02;;;;;;;4.50;3.50;;;10.50;61.00;;;;;;4987934;28;20281;-57
2024/01/05 00:26:27;;;;;;;6.57;2.80;;;10.70;61.10;;;;;;4987470;28;20230;-57
2024/01/05 00:28:53;;;;;;;6.23;3.13;;;10.60;60.70;;;;;;4987695;28;20882;-56
2024/01/05 00:31:19;;;;;;;6.70;3.40;;;10.70;60.90;;;;;;4983484;28;20669;-56
2024/01/05 00:33:45;;;;;;;7.93;3.27;;;10.70;60.90;;;;;;4986228;28;20232;-59
2024/01/05 00:36:11;;;;;;;6.87;2.90;;;10.80;60.70;;;;;;4979836;28;20465;-57
2024/01/05 00:38:37;;;;;;;4.77;3.60;;;10.70;60.60;;;;;;4986892;28;20191;-59
2024/01/05 00:41:03;;;;;;;4.87;3.53;;;10.70;61.20;;;;;;4979035;28;20839;-58
2024/01/05 00:43:29;;;;;;;4.47;3.10;;;10.60;61.40;;;;;;4984892;28;20500;-56
2024/01/05 00:45:55;;;;;;;5.43;3.43;;;10.60;61.50;;;;;;4981085;28;20976;-59
2024/01/05 00:48:21;;;;;;;10.73;4.13;;;10.60;61.50;;;;;;4981019;28;20191;-57
2024/01/05 00:50:46;;;;;;;7.93;3.97;;;10.50;61.80;;;;;;4981900;28;20528;-56
2024/01/05 00:53:12;;;;;;;8.53;4.33;;;10.60;61.50;;;;;;4983412;28;20284;-56
2024/01/05 00:55:38;;;;;;;7.97;3.27;;;10.60;61.60;;;;;;4983400;28;20213;-58
2024/01/05 00:58:04;;;;;;;3.70;2.83;;;10.70;61.20;;;;;;4986494;28;20261;-57
2024/01/05 01:00:30;;;;;;;6.37;4.10;;;10.50;61.70;;;;;;4982389;28;20195;-56
2024/01/05 01:02:56;;;;;;;8.27;4.93;;;10.30;61.60;;;;;;4983646;28;20532;-56
2024/01/05 01:05:21;;;;;;;10.30;4.50;;;10.40;62.00;;;;;;4979877;28;21060;-56
2024/01/05 01:07:47;;;;;;;6.57;3.87;;;10.50;61.70;;;;;;4983072;28;20233;-59
2024/01/05 01:10:13;;;;;;;8.97;4.07;;;10.60;61.60;;;;;;4984364;28;20208;-59
2024/01/05 01:12:39;;;;;;;9.83;4.73;;;10.80;61.20;;;;;;4984805;28;20218;-58
2024/01/05 01:15:05;;;;;;;8.93;3.87;;;11.00;60.90;;;;;;4983449;28;21032;-58
2024/01/05 01:17:31;;;;;;;8.60;3.70;;;11.20;60.30;;;;;;4982366;28;20594;-58
2024/01/05 01:19:56;;;;;;;7.53;3.33;;;11.10;59.70;;;;;;4983836;28;20437;-57
2024/01/05 01:22:22;;;;;;;7.27;3.37;;;11.10;59.80;;;;;;4982716;28;20261;-57
2024/01/05 01:24:48;;;;;;;7.07;3.53;;;11.00;59.60;;;;;;4982986;28;20198;-57
2024/01/05 01:27:14;;;;;;;3.73;2.67;;;11.00;59.50;;;;;;4978723;28;20207;-59
2024/01/05 01:29:39;;;;;;;4.90;3.40;;;10.90;59.70;;;;;;4987448;28;20187;-59
2024/01/05 01:32:05;;;;;;;5.93;3.07;;;10.70;60.40;;;;;;4983221;28;20529;-58
2024/01/05 01:34:31;;;;;;;8.90;3.50;;;10.70;60.70;;;;;;4980716;28;20217;-57
2024/01/05 01:36:56;;;;;;;8.70;3.73;;;10.20;62.20;;;;;;4989392;28;20203;-57
2024/01/05 01:39:22;;;;;;;10.20;4.60;;;10.30;62.50;;;;;;4988377;28;20198;-58
2024/01/05 01:41:47;;;;;;;5.70;3.03;;;10.60;62.80;;;;;;4989049;28;20229;-60
2024/01/05 01:44:13;;;;;;;3.93;2.60;;;10.60;61.00;;;;;;4988018;28;20195;-59
2024/01/05 01:46:39;;;;;;;3.77;2.80;;;10.70;61.10;;;;;;4986197;28;20609;-57
2024/01/05 01:49:05;;;;;;;9.73;2.90;;;10.80;60.50;;;;;;4988319;28;20306;-57
2024/01/05 01:51:32;;;;;;;8.00;3.50;;;10.90;60.30;;;;;;4986955;28;20999;-57
2024/01/05 01:54:03;;;;;;;7.43;2.40;;;11.00;59.70;;;;;;4987873;28;20844;-60
2024/01/05 01:56:30;;;;;;;6.40;2.87;;;11.00;59.60;;;;;;4985230;28;21097;-57
2024/01/05 01:58:56;;;;;;;4.27;2.60;;;11.00;59.50;;;;;;4985230;28;20441;-60
2024/01/05 02:01:21;;;;;;;3.70;2.67;;;11.10;59.60;;;;;;4986923;28;20454;-58
2024/01/05 02:03:47;;;;;;;5.63;3.13;;;11.10;59.40;;;;;;4990388;28;20449;-57
2024/01/05 02:06:13;;;;;;;5.07;2.97;;;10.90;59.40;;;;;;4988553;28;20693;-57
2024/01/05 02:08:39;;;;;;;8.07;2.67;;;11.00;59.70;;;;;;4988839;28;20604;-59
2024/01/05 02:11:05;;;;;;;6.03;3.03;;;10.80;60.30;;;;;;4984226;28;21627;-56
2024/01/05 02:13:31;;;;;;;6.77;2.80;;;10.60;60.80;;;;;;4988092;28;20484;-57
2024/01/05 02:15:57;;;;;;;5.30;2.57;;;10.50;61.10;;;;;;4989226;28;20206;-59
2024/01/05 02:18:22;;;;;;;8.70;2.90;;;10.60;61.10;;;;;;4985048;28;20517;-57
2024/01/05 02:20:48;;;;;;;4.83;2.60;;;10.30;61.50;;;;;;4984973;28;20202;-58
2024/01/05 02:23:24;;;;;;;3.73;2.63;;;10.10;62.30;;;;;;4986578;28;20187;-59
2024/01/05 02:25:50;;;;;;;3.60;2.80;;;10.00;63.30;;;;;;4984031;28;20208;-60
2024/01/05 02:28:16;;;;;;;6.83;2.77;;;10.20;63.60;;;;;;4984973;28;20512;-57
2024/01/05 02:30:41;;;;;;;5.60;2.60;;;10.20;62.40;;;;;;4984153;28;20874;-58
2024/01/05 02:33:07;;;;;;;5.47;2.13;;;10.20;62.30;;;;;;4991321;28;20477;-57
2024/01/05 02:35:32;;;;;;;5.07;2.40;;;10.30;61.80;;;;;;4985357;28;20264;-58
2024/01/05 02:37:58;;;;;;;4.63;2.90;;;10.40;61.60;;;;;;4984981;28;20189;-58
2024/01/05 02:40:23;;;;;;;6.53;2.27;;;10.60;61.00;;;;;;4985062;28;20190;-58
2024/01/05 02:42:49;;;;;;;2.90;1.87;;;10.80;60.30;;;;;;4986969;28;20183;-57
2024/01/05 02:45:20;;;;;;;3.70;2.00;;;10.90;59.70;;;;;;4987434;28;20198;-58
2024/01/05 02:47:49;;;;;;;5.60;2.83;;;10.80;60.00;;;;;;4986078;28;20694;-56
2024/01/05 02:50:15;;;;;;;9.00;2.60;;;11.00;59.90;;;;;;4986439;28;20488;-56
2024/01/05 02:52:41;;;;;;;4.33;2.37;;;11.10;59.70;;;;;;4986022;28;20481;-57
2024/01/05 02:55:07;;;;;;;4.00;2.37;;;11.20;59.30;;;;;;4984708;28;20461;-59
2024/01/05 02:57:33;;;;;;;2.97;2.27;;;11.30;58.90;;;;;;4984552;28;20183;-59
2024/01/05 02:59:58;;;;;;;5.83;3.17;;;11.10;58.40;;;;;;4983242;28;20450;-58
2024/01/05 03:02:24;;;;;;;4.63;2.67;;;11.20;59.10;;;;;;4984913;28;20198;-59
2024/01/05 03:04:51;;;;;;;3.27;2.70;;;11.30;58.90;;;;;;4986029;28;20202;-58
2024/01/05 03:07:17;;;;;;;5.63;3.50;;;11.40;58.60;;;;;;4988383;28;20226;-57
2024/01/05 03:09:43;;;;;;;5.20;2.80;;;11.50;58.40;;;;;;4987877;28;20481;-59
2024/01/05 03:12:09;;;;;;;1.90;1.77;;;11.60;58.30;;;;;;4987424;28;20214;-58
2024/01/05 03:14:34;;;;;;;4.47;1.90;;;11.50;57.80;;;;;;4987653;28;20183;-57
2024/01/05 03:17:00;;;;;;;4.50;2.23;;;11.50;58.00;;;;;;4987295;28;20214;-60
2024/01/05 03:19:25;;;;;;;3.67;2.50;;;11.50;57.90;;;;;;4987718;28;20190;-60
2024/01/05 03:21:51;;;;;;;4.70;1.80;;;11.60;58.00;;;;;;4987109;28;20190;-59
2024/01/05 03:24:16;;;;;;;3.67;2.07;;;11.60;57.90;;;;;;4986715;28;20186;-61
2024/01/05 03:26:45;;;;;;;7.27;2.80;;;11.40;57.60;;;;;;4986328;28;20206;-58
2024/01/05 03:29:10;;;;;;;5.10;2.13;;;11.30;57.70;;;;;;4988829;28;20561;-59
2024/01/05 03:31:36;;;;;;;4.60;2.23;;;11.40;57.90;;;;;;4991748;28;20436;-57
2024/01/05 03:34:02;;;;;;;2.50;1.60;;;11.20;57.60;;;;;;4986520;28;20289;-57
2024/01/05 03:36:27;;;;;;;4.17;2.70;;;11.50;57.40;;;;;;4987294;28;20226;-57
2024/01/05 03:38:54;;;;;;;3.50;2.57;;;11.60;57.30;;;;;;4988170;28;20198;-59
2024/01/05 03:41:19;;;;;;;8.17;2.93;;;11.70;57.30;;;;;;4986615;28;20275;-57
2024/01/05 03:43:45;;;;;;;4.70;2.63;;;11.80;57.40;;;;;;4989076;28;20442;-59
2024/01/05 03:46:11;;;;;;;5.37;2.20;;;11.80;57.30;;;;;;4989420;28;20213;-57
2024/01/05 03:48:37;;;;;;;5.50;2.20;;;11.50;57.50;;;;;;4985164;28;20190;-57
2024/01/05 03:51:03;;;;;;;6.20;2.23;;;11.50;57.80;;;;;;4986980;28;20441;-59
2024/01/05 03:53:29;;;;;;;5.77;3.00;;;11.40;57.70;;;;;;4984586;28;20816;-57
2024/01/05 03:55:58;;;;;;;3.17;2.00;;;11.20;58.00;;;;;;4980714;28;20214;-56
2024/01/05 03:58:23;;;;;;;4.37;2.37;;;11.00;58.20;;;;;;4985732;28;20202;-55
2024/01/05 04:00:49;;;;;;;4.73;2.60;;;10.80;59.30;;;;;;4984695;28;20476;-56
2024/01/05 04:03:16;;;;;;;4.97;2.47;;;11.00;59.20;;;;;;4985104;28;20202;-56
2024/01/05 04:05:42;;;;;;;8.57;2.70;;;11.10;58.70;;;;;;4986194;28;20294;-57
2024/01/05 04:08:08;;;;;;;4.83;2.27;;;11.00;58.00;;;;;;4987220;28;20454;-56
2024/01/05 04:10:34;;;;;;;3.33;2.23;;;11.10;58.10;;;;;;4982355;28;20505;-59
2024/01/05 04:13:00;;;;;;;7.60;2.80;;;11.20;58.10;;;;;;4987074;28;20234;-58
2024/01/05 04:15:26;;;;;;;5.70;2.43;;;11.40;57.90;;;;;;5000828;28;20207;-59
2024/01/05 04:17:51;;;;;;;4.17;2.03;;;11.40;57.60;;;;;;4987000;28;20453;-57
2024/01/05 04:20:17;;;;;;;6.53;2.67;;;11.40;57.40;;;;;;4987010;28;20573;-57
2024/01/05 04:22:43;;;;;;;4.90;2.20;;;11.50;57.30;;;;;;4983173;28;20205;-55
2024/01/05 04:25:08;;;;;;;5.60;2.57;;;11.50;57.10;;;;;;4986672;28;20187;-58
2024/01/05 04:27:34;;;;;;;4.93;2.03;;;11.50;56.90;;;;;;4987061;28;20213;-56
2024/01/05 04:29:59;;;;;;;5.70;1.53;;;11.60;56.70;;;;;;4983650;28;20182;-59
2024/01/05 04:32:25;;;;;;;3.63;1.73;;;11.50;56.60;;;;;;4985923;28;20226;-59
2024/01/05 04:34:50;;;;;;;6.70;1.83;;;11.40;56.70;;;;;;4986432;28;20183;-57
2024/01/05 04:37:16;;;;;;;3.83;1.53;;;11.40;56.90;;;;;;4983435;28;20203;-59
2024/01/05 04:39:43;;;;;;;3.10;1.50;;;11.40;56.80;;;;;;4988035;28;20241;-58
2024/01/05 04:42:10;;;;;;;3.03;2.37;;;11.50;56.80;;;;;;4985523;28;20265;-57
2024/01/05 04:44:36;;;;;;;6.53;2.50;;;11.50;56.60;;;;;;4982529;28;20986;-58
2024/01/05 04:47:02;;;;;;;10.53;2.83;;;11.60;56.60;;;;;;4987769;28;20469;-58
2024/01/05 04:49:27;;;;;;;2.80;2.20;;;11.60;56.70;;;;;;4989302;28;20658;-59
2024/01/05 04:51:53;;;;;;;7.07;2.10;;;11.50;57.20;;;;;;4986942;28;20452;-59
2024/01/05 04:54:19;;;;;;;4.00;2.50;;;11.20;57.20;;;;;;4984703;28;20229;-59
2024/01/05 04:56:44;;;;;;;2.83;1.57;;;11.10;57.50;;;;;;4987385;28;20210;-57
2024/01/05 04:59:10;;;;;;;4.10;1.83;;;11.00;57.60;;;;;;4986252;28;20614;-58
2024/01/05 05:01:35;;;;;;;4.40;2.70;;;11.20;57.40;;;;;;4982472;28;20201;-59
2024/01/05 05:04:01;;;;;;;4.40;1.80;;;11.20;57.20;;;;;;4984578;28;20202;-58
2024/01/05 05:06:27;;;;;;;6.10;2.20;;;11.20;57.00;;;;;;4983551;28;20206;-58
2024/01/05 05:08:53;;;;;;;2.40;1.53;;;11.40;56.80;;;;;;4981238;28;20186;-57
2024/01/05 05:11:19;;;;;;;2.60;1.93;;;11.40;56.30;;;;;;4985356;28;20450;-60
2024/01/05 05:13:45;;;;;;;1.43;1.33;;;11.60;56.30;;;;;;4992175;28;20246;-58
2024/01/05 05:16:10;;;;;;;1.70;1.20;;;11.50;56.20;;;;;;4985798;28;20964;-57
2024/01/05 05:18:36;;;;;;;3.60;1.30;;;11.40;56.30;;;;;;4988470;28;20193;-58
2024/01/05 05:21:02;;;;;;;2.83;2.10;;;11.40;56.40;;;;;;4988106;28;20219;-58
2024/01/05 05:23:28;;;;;;;2.90;1.60;;;11.20;56.50;;;;;;4989740;28;20186;-58
2024/01/05 05:25:54;;;;;;;2.80;1.80;;;11.20;56.60;;;;;;4985347;28;20532;-58
2024/01/05 05:28:20;;;;;;;7.10;1.87;;;11.20;56.60;;;;;;4984070;28;20223;-57
2024/01/05 05:30:45;;;;;;;4.03;1.67;;;11.20;56.30;;;;;;4985547;28;20464;-57
2024/01/05 05:33:11;;;;;;;3.60;1.97;;;10.80;57.00;;;;;;4986328;28;20388;-59
2024/01/05 05:35:36;;;;;;;2.53;1.80;;;10.80;57.50;;;;;;4981191;28;20253;-58
2024/01/05 05:38:03;;;;;;;2.67;1.67;;;10.90;57.20;;;;;;4981748;28;20190;-58
2024/01/05 05:40:29;;;;;;;2.97;2.00;;;10.90;57.10;;;;;;4986394;28;20190;-59
2024/01/05 05:42:55;;;;;;;2.70;1.60;;;10.80;57.20;;;;;;4981961;28;20438;-56
2024/01/05 05:45:21;;;;;;;2.80;1.60;;;10.70;57.10;;;;;;4984505;28;20842;-56
2024/01/05 05:47:46;;;;;;;5.73;1.90;;;10.90;57.10;;;;;;4987755;28;20709;-58
2024/01/05 05:50:13;;;;;;;3.20;1.90;;;11.00;56.70;;;;;;4986504;28;20228;-57
2024/01/05 05:52:39;;;;;;;3.63;2.10;;;11.00;56.30;;;;;;4989097;28;20225;-59
2024/01/05 05:55:06;;;;;;;6.13;1.60;;;10.90;56.50;;;;;;4980194;28;20446;-59
2024/01/05 05:57:32;;;;;;;4.30;1.60;;;11.10;56.10;;;;;;4985764;28;20920;-57
2024/01/05 05:59:58;;;;;;;2.30;1.27;;;11.30;55.80;;;;;;4987974;28;20529;-57
2024/01/05 06:02:24;;;;;;;3.10;1.80;;;11.40;55.50;;;;;;4986468;28;20459;-58
2024/01/05 06:04:50;;;;;;;3.63;2.53;;;11.60;55.10;;;;;;4979662;28;20809;-57
2024/01/05 06:07:17;;;;;;;4.43;1.87;;;11.60;54.90;;;;;;4981904;28;20203;-59
2024/01/05 06:09:42;;;;;;;3.53;1.80;;;11.80;54.90;;;;;;4978989;28;20685;-60
2024/01/05 06:12:09;;;;;;;1.73;1.50;;;11.90;54.60;;;;;;4980099;28;20964;-59
2024/01/05 06:14:36;;;;;;;5.87;1.60;;;11.80;54.40;;;;;;4986989;28;20194;-59
2024/01/05 06:17:03;;;;;;;4.10;1.67;;;11.90;54.40;;;;;;4983276;28;20588;-57
2024/01/05 06:19:28;;;;;;;5.10;1.80;;;11.80;54.40;;;;;;4986130;28;20906;-60
2024/01/05 06:21:54;;;;;;;9.20;2.20;;;11.80;54.70;;;;;;4985018;28;20278;-57
2024/01/05 06:24:19;;;;;;;10.63;1.93;;;12.00;55.40;;;;;;4991446;28;20198;-61
2024/01/05 06:26:45;;;;;;;3.53;1.60;;;12.20;58.20;;;;;;4989201;28;20723;-60
2024/01/05 06:29:10;;;;;;;4.50;1.80;;;12.40;58.10;;;;;;4988840;28;20194;-59
2024/01/05 06:31:36;;;;;;;2.80;1.60;;;12.40;56.80;;;;;;4985212;28;20638;-56
2024/01/05 06:34:01;;;;;;;6.43;2.03;;;12.70;56.70;;;;;;4990183;28;20250;-59
2024/01/05 06:36:27;;;;;;;4.60;2.10;;;12.80;56.00;;;;;;4983923;28;20218;-58
2024/01/05 06:38:52;;;;;;;3.60;1.73;;;12.80;54.30;;;;;;4989844;28;20314;-57
2024/01/05 06:41:18;;;;;;;3.00;1.60;;;12.80;54.20;;;;;;4987141;28;20183;-58
2024/01/05 06:43:43;;;;;;;3.80;2.20;;;13.00;54.70;;;;;;4984348;28;20214;-58
2024/01/05 06:46:09;;;;;;;3.03;1.60;;;13.00;53.70;;;;;;4986109;28;20210;-58
2024/01/05 06:48:34;;;;;;;3.33;1.40;;;12.90;53.20;;;;;;4986787;28;20189;-59
2024/01/05 06:51:00;;;;;;;10.20;1.60;;;12.90;53.50;;;;;;4991183;28;20175;-59
2024/01/05 06:53:26;;;;;;;2.10;1.60;;;13.00;52.80;;;;;;4989339;28;20326;-60
2024/01/05 06:55:51;;;;;;;1.97;1.50;;;13.20;53.10;;;;;;4989038;28;20711;-60
2024/01/05 06:58:17;;;;;;;5.27;1.47;;;13.00;51.70;;;;;;4990602;28;20187;-58
2024/01/05 07:00:42;;;;;;;5.60;2.27;;;12.90;52.70;;;;;;4988218;28;20202;-59
2024/01/05 07:03:08;;;;;;;3.60;2.37;;;13.00;52.80;;;;;;4989848;28;20198;-57
2024/01/05 07:05:33;;;;;;;3.70;1.40;;;13.20;52.80;;;;;;4989501;28;20214;-59
2024/01/05 07:07:59;;;;;;;3.27;2.20;;;13.20;52.70;;;;;;4986238;28;20183;-54
2024/01/05 07:10:25;;;;;;;4.33;1.60;;;13.40;52.50;;;;;;4989138;28;20447;-59
2024/01/05 07:12:50;;;;;;;2.57;1.70;;;13.50;52.10;;;;;;4989870;28;20260;-60
2024/01/05 07:15:16;;;;;;;2.63;1.63;;;13.50;52.10;;;;;;4988522;28;20190;-60
2024/01/05 07:17:43;;;;;;;2.50;1.30;;;13.50;52.20;;;;;;4990911;28;20203;-59
2024/01/05 07:20:11;;;;;;;1.57;1.47;;;13.60;52.20;;;;;;4987999;28;20191;-58
2024/01/05 07:22:37;;;;;;;1.87;1.47;;;13.70;51.90;;;;;;4990669;28;20441;-58
2024/01/05 07:25:03;;;;;;;1.63;1.53;;;13.80;51.50;;;;;;4986491;28;20826;-56
2024/01/05 07:27:29;;;;;;;3.40;1.40;;;13.80;50.80;;;;;;4987098;28;20190;-57
2024/01/05 07:29:55;;;;;;;4.40;2.23;;;13.70;50.80;;;;;;4987978;28;21318;-56
2024/01/05 07:32:21;;;;;;;3.60;2.27;;;13.70;50.70;;;;;;4987989;28;20194;-58
2024/01/05 07:34:46;;;;;;;7.57;3.03;;;13.80;51.10;;;;;;4983962;28;20811;-58
2024/01/05 07:37:12;;;;;;;4.93;2.77;;;13.90;50.90;;;;;;4988277;28;20215;-58
2024/01/05 07:39:38;;;;;;;9.03;3.03;;;13.90;50.80;;;;;;4990710;28;20248;-59
2024/01/05 07:42:04;;;;;;;8.13;3.53;;;13.90;50.70;;;;;;4989140;28;20245;-58
2024/01/05 07:44:30;;;;;;;5.70;2.27;;;13.90;50.70;;;;;;4990761;28;20434;-58
2024/01/05 07:46:56;;;;;;;3.53;1.53;;;13.90;50.40;;;;;;4989413;28;20468;-57
2024/01/05 07:49:21;;;;;;;9.23;2.77;;;13.80;50.00;;;;;;4987840;28;20805;-58
2024/01/05 07:51:47;;;;;;;5.00;2.90;;;13.70;49.90;;;;;;4987952;28;20197;-59
2024/01/05 07:54:12;;;;;;;3.70;2.20;;;13.70;50.40;;;;;;4988180;28;20570;-59
2024/01/05 07:56:38;;;;;;;3.10;1.70;;;13.60;50.90;;;;;;4988020;28;20198;-60
2024/01/05 07:59:04;;;;;;;3.83;2.00;;;13.50;50.80;;;;;;4985062;28;21011;-58
2024/01/05 08:01:30;;;;;;;1.47;1.30;;;13.50;51.00;;;;;;4988131;28;20290;-57
2024/01/05 08:03:56;;;;;;;3.37;1.63;;;13.50;51.10;;;;;;4986212;28;20578;-56
2024/01/05 08:06:21;;;;;;;3.40;1.50;;;13.50;51.30;;;;;;4986217;28;20465;-57
2024/01/05 08:08:48;;;;;;;2.47;1.80;;;13.60;51.20;;;;;;4987338;28;20249;-59
2024/01/05 08:11:14;;;;;;;3.63;3.30;;;13.60;51.20;;;;;;4982576;28;20233;-58
2024/01/05 08:13:42;;;;;;;4.50;2.33;;;13.70;51.50;;;;;;4987918;28;20572;-58
2024/01/05 08:16:08;;;;;;;4.63;2.90;;;13.80;51.70;;;;;;4988516;28;20484;-59
2024/01/05 08:18:34;;;;;;;3.47;2.40;;;13.80;51.30;;;;;;4989579;28;20462;-58
2024/01/05 08:21:00;;;;;;;3.63;2.60;;;13.80;51.60;;;;;;4981076;28;22579;-58
2024/01/05 08:23:26;;;;;;;3.00;2.13;;;13.80;51.80;;;;;;4986039;28;20469;-56
2024/01/05 08:25:51;;;;;;;3.00;2.40;;;13.70;51.70;;;;;;4988153;28;20206;-59
2024/01/05 08:28:17;;;;;;;4.50;2.87;;;13.70;51.50;;;;;;4990437;28;20559;-59
2024/01/05 08:30:43;;;;;;;5.97;2.50;;;13.70;51.70;;;;;;4984388;28;20182;-59
2024/01/05 08:33:09;;;;;;;5.20;1.83;;;13.80;52.20;;;;;;4987845;28;20278;-60
2024/01/05 08:35:35;;;;;;;6.03;1.80;;;13.80;51.70;;;;;;4986589;28;20462;-61
2024/01/05 08:38:02;;;;;;;3.00;2.00;;;13.90;51.70;;;;;;4983433;28;20198;-59
2024/01/05 08:40:28;;;;;;;8.83;2.43;;;14.00;51.50;;;;;;4986197;28;20604;-59
2024/01/05 08:42:54;;;;;;;5.93;2.30;;;14.10;51.30;;;;;;4978679;28;20446;-60
2024/01/05 08:45:20;;;;;;;2.60;1.97;;;14.00;51.20;;;;;;4982728;28;20476;-62
2024/01/05 08:47:46;;;;;;;4.13;2.50;;;14.00;51.20;;;;;;4986463;28;20446;-60
2024/01/05 08:50:12;;;;;;;3.40;1.77;;;14.00;50.80;;;;;;4986055;28;20448;-61
2024/01/05 08:52:38;;;;;;;2.40;1.70;;;13.90;51.40;;;;;;4987892;28;20320;-59
2024/01/05 08:55:04;;;;;;;2.43;1.83;;;14.00;51.60;;;;;;4987305;28;20426;-61
2024/01/05 08:57:30;;;;;;;5.60;2.30;;;14.00;51.40;;;;;;4986348;28;20281;-60
2024/01/05 08:59:56;;;;;;;2.00;1.70;;;14.10;51.30;;;;;;4987708;28;20521;-60
2024/01/05 09:02:22;;;;;;;4.67;2.07;;;14.20;51.30;;;;;;4989223;28;20213;-61
2024/01/05 09:04:48;;;;;;;3.40;2.33;;;14.30;51.30;;;;;;4984547;28;20218;-59
2024/01/05 09:07:13;;;;;;;4.60;1.90;;;14.30;51.00;;;;;;4987743;28;20477;-61
2024/01/05 09:09:39;;;;;;;4.07;2.17;;;14.50;51.10;;;;;;4983534;28;20183;-62
2024/01/05 09:12:05;;;;;;;3.77;1.90;;;14.40;51.20;;;;;;4981229;28;20199;-60
2024/01/05 09:14:31;;;;;;;4.27;2.20;;;14.40;51.40;;;;;;4987491;28;20309;-61
2024/01/05 09:16:57;;;;;;;3.83;2.00;;;14.50;51.30;;;;;;4983382;28;20533;-60
2024/01/05 09:19:22;;;;;;;4.17;2.53;;;14.60;51.00;;;;;;4982555;28;20568;-58
2024/01/05 09:21:48;;;;;;;4.87;2.70;;;14.60;50.80;;;;;;4984914;28;20190;-60
2024/01/05 09:24:13;;;;;;;5.67;2.47;;;14.60;50.70;;;;;;4984631;28;20190;-62
2024/01/05 09:26:39;;;;;;;2.67;2.43;;;14.40;50.50;;;;;;4986881;28;21592;-59
2024/01/05 09:29:05;;;;;;;4.53;2.20;;;14.40;51.00;;;;;;4984692;28;20202;-60
2024/01/05 09:31:31;;;;;;;3.30;2.50;;;14.40;51.00;;;;;;4981966;28;20221;-60
2024/01/05 09:33:56;;;;;;;3.80;2.13;;;14.40;51.50;;;;;;4977717;28;20207;-59
2024/01/05 09:36:22;;;;;;;2.87;2.57;;;14.40;51.60;;;;;;4985187;28;20442;-61
2024/01/05 09:38:49;;;;;;;5.57;2.50;;;14.50;51.40;;;;;;4978052;28;20213;-60
2024/01/05 09:41:14;;;;;;;2.67;1.97;;;14.50;51.40;;;;;;4984648;28;20529;-59
2024/01/05 09:44:00;;;;;;;4.93;2.47;;;14.40;51.50;;;;;;4985685;28;21025;-61
2024/01/05 09:46:28;;;;;;;2.57;2.10;;;14.40;51.60;;;;;;4983053;28;20214;-58
2024/01/05 09:48:56;;;;;;;3.10;2.33;;;14.50;51.40;;;;;;4981903;28;20534;-59
2024/01/05 09:51:22;;;;;;;4.37;2.40;;;14.60;51.40;;;;;;4982680;28;20441;-60
2024/01/05 09:53:48;;;;;;;4.60;2.87;;;14.60;51.10;;;;;;4986170;28;20492;-61
2024/01/05 09:56:15;;;;;;;2.60;2.00;;;14.70;50.90;;;;;;4984313;28;20949;-60
2024/01/05 09:58:42;;;;;;;2.20;1.50;;;14.80;51.30;;;;;;4990903;28;20209;-61
2024/01/05 10:01:14;;;;;;;4.67;2.10;;;14.80;51.00;;;;;;4985242;28;20453;-59
2024/01/05 10:03:42;;;;;;;5.40;2.30;;;14.80;50.90;;;;;;4986671;28;20729;-61
2024/01/05 10:06:08;;;;;;;6.00;3.00;;;14.90;51.40;;;;;;4990939;28;20449;-61
2024/01/05 10:08:33;;;;;;;3.83;2.00;;;14.90;51.30;;;;;;4989557;28;20892;-60
2024/01/05 10:11:01;;;;;;;6.50;2.00;;;15.00;51.10;;;;;;4982676;28;20626;-61
2024/01/05 10:13:27;;;;;;;3.80;1.60;;;14.90;50.10;;;;;;4980229;28;20269;-62
2024/01/05 10:15:54;;;;;;;1.77;1.60;;;14.30;49.70;;;;;;4986715;28;20470;-61
2024/01/05 10:18:21;;;;;;;2.30;2.03;;;14.30;51.30;;;;;;4978311;28;20445;-62
2024/01/05 10:20:46;;;;;;;2.50;1.80;;;14.60;51.00;;;;;;4986083;28;20437;-60
2024/01/05 10:23:13;;;;;;;2.50;1.67;;;14.80;50.70;;;;;;4986011;28;20456;-61
2024/01/05 10:25:39;;;;;;;2.73;1.70;;;14.90;49.80;;;;;;4985739;28;20203;-60
2024/01/05 10:28:30;;;;;;;6.33;2.07;;;15.10;50.50;;;;;;4986132;28;20456;-59
2024/01/05 10:31:12;;;;;;;4.27;2.90;;;15.10;50.90;;;;;;4985653;28;20496;-61
2024/01/05 10:33:48;;;;;;;4.70;3.00;;;15.10;50.60;;;;;;4984550;28;20497;-60
2024/01/05 10:36:17;;;;;;;5.47;4.43;;;15.10;51.10;;;;;;4981406;28;21061;-60
2024/01/05 10:38:44;;;;;;;4.33;3.27;;;15.10;51.50;;;;;;4984127;28;20442;-61
2024/01/05 10:41:10;;;;;;;4.23;3.77;;;15.10;51.90;;;;;;4983995;28;20442;-60
2024/01/05 10:43:37;;;;;;;5.00;3.90;;;15.10;52.10;;;;;;4983192;28;20452;-61
2024/01/05 10:46:04;;;;;;;8.57;4.83;;;15.10;52.00;;;;;;4981935;28;20994;-59
2024/01/05 10:48:32;;;;;;;6.43;4.30;;;15.20;52.20;;;;;;4984342;28;20448;-61
2024/01/05 10:50:58;;;;;;;8.17;5.07;;;15.20;52.50;;;;;;4984643;28;20441;-58
2024/01/05 10:53:26;;;;;;;3.63;2.60;;;15.30;52.80;;;;;;4981447;28;20501;-60
2024/01/05 10:55:52;;;;;;;4.23;2.20;;;15.20;51.90;;;;;;4985159;28;20553;-58
2024/01/05 10:58:18;;;;;;;3.90;2.20;;;15.30;51.10;;;;;;4989605;28;20442;-61
2024/01/05 11:00:44;;;;;;;4.27;2.30;;;15.40;50.70;;;;;;4985206;28;20445;-63
2024/01/05 11:03:14;;;;;;;5.17;3.30;;;15.60;50.60;;;;;;4984575;28;20295;-63
2024/01/05 11:05:45;;;;;;;4.20;2.40;;;15.60;50.50;;;;;;4984087;28;20369;-62
2024/01/05 11:08:33;;;;;;;5.90;3.00;;;15.70;50.60;;;;;;4983060;28;20446;-63
2024/01/05 11:11:26;;;;;;;5.47;3.20;;;15.70;50.60;;;;;;4983402;28;20434;-62
2024/01/05 11:14:12;;;;;;;7.50;4.57;;;15.80;50.50;;;;;;4988643;28;20474;-60
2024/01/05 11:16:57;;;;;;;11.27;5.63;;;15.70;50.30;;;;;;4983433;28;20536;-57
2024/01/05 11:19:36;;;;;;;9.20;6.00;;;15.70;50.40;;;;;;4976461;28;20842;-60
2024/01/05 11:22:06;;;;;;;8.17;4.70;;;15.60;51.30;;;;;;4980529;28;20492;-59
2024/01/05 11:24:33;;;;;;;6.53;3.47;;;15.60;51.30;;;;;;4977635;28;20444;-60
2024/01/05 11:26:59;;;;;;;5.57;3.20;;;15.40;51.40;;;;;;4976860;28;20469;-60
2024/01/05 11:29:47;;;;;;;7.53;3.70;;;15.20;51.40;;;;;;4989476;28;20963;-58
2024/01/05 11:32:32;;;;;;;6.17;3.40;;;15.10;51.70;;;;;;4984653;28;20281;-58
2024/01/05 11:34:58;;;;;;;5.53;4.93;;;15.10;51.60;;;;;;4989471;28;20438;-57
2024/01/05 11:37:31;;;;;;;5.30;3.23;;;15.30;51.40;;;;;;4987200;28;20549;-59
2024/01/05 11:40:03;;;;;;;5.93;3.07;;;15.40;51.40;;;;;;4983721;28;20229;-59
2024/01/05 11:42:33;;;;;;;6.27;4.13;;;15.50;51.20;;;;;;4976757;28;20938;-60
2024/01/05 11:45:00;;;;;;;7.20;3.43;;;15.60;51.10;;;;;;4984967;28;20422;-59
2024/01/05 11:47:45;;;;;;;10.67;3.50;;;15.80;51.30;;;;;;4983212;28;20447;-60
2024/01/05 11:50:34;;;;;;;4.50;2.80;;;15.90;51.00;;;;;;4979655;28;20453;-58
2024/01/05 11:53:15;;;;;;;6.03;2.33;;;16.00;50.70;;;;;;4980137;28;20484;-60
2024/01/05 11:55:53;;;;;;;3.73;2.73;;;16.00;50.20;;;;;;4979659;28;20500;-60
2024/01/05 11:58:21;;;;;;;3.17;2.20;;;16.10;50.60;;;;;;4982553;28;20457;-60
2024/01/05 12:00:47;;;;;;;5.03;2.10;;;16.10;50.60;;;;;;4979746;28;20548;-59
2024/01/05 12:03:17;;;;;;;2.70;2.07;;;16.10;50.50;;;;;;4985257;28;20822;-59
2024/01/05 12:05:43;;;;;;;2.20;1.97;;;16.10;50.00;;;;;;4981609;28;20830;-59
2024/01/05 12:08:13;;;;;;;2.93;2.30;;;16.10;50.00;;;;;;4981278;28;21031;-60
2024/01/05 12:10:39;;;;;;;3.13;2.70;;;16.00;50.30;;;;;;4983366;28;20474;-59
2024/01/05 12:13:06;;;;;;;8.00;2.80;;;15.70;51.30;;;;;;4985078;28;20489;-59
2024/01/05 12:15:32;;;;;;;4.97;3.30;;;15.60;51.80;;;;;;4984285;28;20490;-58
2024/01/05 12:18:07;;;;;;;4.07;3.20;;;15.60;52.60;;;;;;4980248;28;20887;-59
2024/01/05 12:20:36;;;;;;;4.83;3.17;;;15.70;51.90;;;;;;4981356;28;20430;-59
2024/01/05 12:23:02;;;;;;;6.60;3.50;;;15.60;51.80;;;;;;4980188;28;20811;-59
2024/01/05 12:25:28;;;;;;;5.73;3.03;;;15.50;51.90;;;;;;4982704;28;21320;-59
2024/01/05 12:27:54;;;;;;;8.93;3.73;;;15.50;52.20;;;;;;4987365;28;20441;-59
2024/01/05 12:30:21;;;;;;;4.60;3.40;;;15.50;52.30;;;;;;4981414;28;20253;-59
2024/01/05 12:32:49;;;;;;;5.97;3.70;;;15.50;52.30;;;;;;4981509;28;20215;-59
2024/01/05 12:35:15;;;;;;;4.10;3.10;;;15.50;52.30;;;;;;4977684;28;20454;-59
2024/01/05 12:37:54;;;;;;;5.30;3.47;;;15.50;52.30;;;;;;4988151;28;20442;-60
2024/01/05 12:40:24;;;;;;;5.60;3.03;;;15.30;52.60;;;;;;4985457;28;20441;-59
2024/01/05 12:42:53;;;;;;;3.43;3.10;;;15.20;52.90;;;;;;4988101;28;20497;-59
2024/01/05 12:45:23;;;;;;;5.53;3.20;;;15.10;52.90;;;;;;4982020;28;21264;-59